createdAt,value
2023-01-13T00:00:06.812Z,1.89
2023-01-13T00:02:33.325Z,1.90
2023-01-13T00:04:59.812Z,1.88
2023-01-13T00:07:26.276Z,1.85
2023-01-13T00:09:52.776Z,1.79
2023-01-13T00:12:19.309Z,1.79
2023-01-13T00:14:45.928Z,1.77
2023-01-13T00:17:12.423Z,1.76
2023-01-13T00:19:38.972Z,1.74
2023-01-13T00:22:06.545Z,1.72
2023-01-13T00:24:33.055Z,1.72
2023-01-13T00:26:59.510Z,1.69
2023-01-13T00:29:25.987Z,1.68
2023-01-13T00:31:52.541Z,1.67
2023-01-13T00:34:19.273Z,1.64
2023-01-13T00:36:45.853Z,1.62
2023-01-13T00:39:12.414Z,1.64
2023-01-13T00:41:57.661Z,1.62
2023-01-13T00:44:24.211Z,1.52
2023-01-13T00:46:50.825Z,1.54
2023-01-13T00:49:17.372Z,1.55
2023-01-13T00:51:43.916Z,1.56
2023-01-13T00:54:10.403Z,1.59
2023-01-13T00:56:41.339Z,1.61
2023-01-13T00:59:10.099Z,1.60
2023-01-13T01:01:36.742Z,1.62
2023-01-13T01:04:03.466Z,1.59
2023-01-13T01:06:29.915Z,1.59
2023-01-13T01:08:56.754Z,1.59
2023-01-13T01:11:25.074Z,1.60
2023-01-13T01:13:52.677Z,1.60
2023-01-13T01:16:21.103Z,1.62
2023-01-13T01:18:48.659Z,1.63
2023-01-13T01:21:15.452Z,1.62
2023-01-13T01:23:42.304Z,1.59
2023-01-13T01:26:10.985Z,1.61
2023-01-13T01:28:38.488Z,1.63
2023-01-13T01:31:08.766Z,1.64
2023-01-13T01:33:35.495Z,1.64
2023-01-13T01:36:02.793Z,1.64
2023-01-13T01:38:29.522Z,1.69
2023-01-13T01:40:56.264Z,1.70
2023-01-13T01:43:42.563Z,1.71
2023-01-13T01:46:09.028Z,1.73
2023-01-13T01:48:41.778Z,1.73
2023-01-13T01:51:10.055Z,1.77
2023-01-13T01:53:36.689Z,1.78
2023-01-13T01:56:03.531Z,1.77
2023-01-13T01:58:34.620Z,1.79
2023-01-13T02:01:01.515Z,1.80
2023-01-13T02:03:28.140Z,1.83
2023-01-13T02:05:54.665Z,1.81
2023-01-13T02:08:21.300Z,1.83
2023-01-13T02:10:50.824Z,1.83
2023-01-13T02:13:17.376Z,1.83
2023-01-13T02:16:07.990Z,1.84
2023-01-13T02:18:52.860Z,1.85
2023-01-13T02:21:34.968Z,1.85
2023-01-13T02:24:38.546Z,1.84
2023-01-13T02:27:23.862Z,1.84
2023-01-13T02:30:15.233Z,1.82
2023-01-13T02:32:44.750Z,1.79
2023-01-13T02:35:17.510Z,1.75
2023-01-13T02:37:44.700Z,1.72
2023-01-13T02:40:11.399Z,1.75
2023-01-13T02:43:05.073Z,1.75
2023-01-13T02:45:34.019Z,1.77
2023-01-13T02:48:01.757Z,1.76
2023-01-13T02:50:51.249Z,1.74
2023-01-13T02:53:29.313Z,1.72
2023-01-13T02:55:58.245Z,1.75
2023-01-13T02:58:27.349Z,1.76
2023-01-13T03:00:53.878Z,1.80
2023-01-13T03:03:20.808Z,1.78
2023-01-13T03:05:48.717Z,1.81
2023-01-13T03:08:24.160Z,1.84
2023-01-13T03:10:53.571Z,1.87
2023-01-13T03:13:41.439Z,1.87
2023-01-13T03:16:18.109Z,1.75
2023-01-13T03:18:59.678Z,1.74
2023-01-13T03:21:26.123Z,1.73
2023-01-13T03:24:02.288Z,1.74
2023-01-13T03:26:35.494Z,1.66
2023-01-13T03:29:06.896Z,1.66
2023-01-13T03:31:36.736Z,1.69
2023-01-13T03:34:13.215Z,1.64
2023-01-13T03:36:40.877Z,1.63
2023-01-13T03:39:12.589Z,1.65
2023-01-13T03:41:43.550Z,1.66
2023-01-13T03:44:22.249Z,1.65
2023-01-13T03:46:54.559Z,1.62
2023-01-13T03:49:24.016Z,1.61
2023-01-13T03:51:55.340Z,1.64
2023-01-13T03:54:27.729Z,1.62
2023-01-13T03:56:56.287Z,1.62
2023-01-13T03:59:25.718Z,1.60
2023-01-13T04:01:52.241Z,1.57
2023-01-13T04:04:45.125Z,1.59
2023-01-13T04:07:30.015Z,1.61
2023-01-13T04:09:58.451Z,1.60
2023-01-13T04:12:51.551Z,1.62
2023-01-13T04:15:20.617Z,1.57
2023-01-13T04:17:47.164Z,1.58
2023-01-13T04:20:13.771Z,1.50
2023-01-13T04:22:40.214Z,1.46
2023-01-13T04:25:07.012Z,1.50
2023-01-13T04:27:33.461Z,1.60
2023-01-13T04:29:59.899Z,1.67
2023-01-13T04:32:26.398Z,1.73
2023-01-13T04:34:52.892Z,1.78
2023-01-13T04:37:19.335Z,1.83
2023-01-13T04:39:46.680Z,1.87
2023-01-13T04:42:13.167Z,1.92
2023-01-13T04:44:39.617Z,1.95
2023-01-13T04:47:06.072Z,2.01
2023-01-13T04:49:33.248Z,2.03
2023-01-13T04:51:59.741Z,2.07
2023-01-13T04:54:26.167Z,2.07
2023-01-13T04:56:52.615Z,2.11
2023-01-13T04:59:19.065Z,2.19
2023-01-13T05:01:45.645Z,2.22
2023-01-13T05:04:12.151Z,2.25
2023-01-13T05:06:47.800Z,2.29
2023-01-13T05:09:15.782Z,2.32
2023-01-13T05:12:18.024Z,2.33
2023-01-13T05:15:07.448Z,2.38
2023-01-13T05:17:34.287Z,2.41
2023-01-13T05:20:00.734Z,2.39
2023-01-13T05:22:45.878Z,2.41
2023-01-13T05:25:21.693Z,2.48
2023-01-13T05:27:55.323Z,2.51
2023-01-13T05:30:22.857Z,2.49
2023-01-13T05:32:49.706Z,2.49
2023-01-13T05:35:16.410Z,2.52
2023-01-13T05:37:43.619Z,2.58
2023-01-13T05:40:29.525Z,2.60
2023-01-13T05:43:22.178Z,2.62
2023-01-13T05:45:58.986Z,2.67
2023-01-13T05:48:30.312Z,2.72
2023-01-13T05:50:57.117Z,2.74
2023-01-13T05:53:24.327Z,2.74
2023-01-13T05:55:50.821Z,2.78
2023-01-13T05:58:17.986Z,2.75
2023-01-13T06:00:44.567Z,2.75
2023-01-13T06:03:11.296Z,2.77
2023-01-13T06:05:38.912Z,2.78
2023-01-13T06:08:06.603Z,2.76
2023-01-13T06:10:33.129Z,2.75
2023-01-13T06:12:59.752Z,2.78
2023-01-13T06:15:26.385Z,2.79
2023-01-13T06:17:52.923Z,2.80
2023-01-13T06:20:19.936Z,2.86
2023-01-13T06:22:47.983Z,2.89
2023-01-13T06:25:21.845Z,2.94
2023-01-13T06:27:48.484Z,2.97
2023-01-13T06:30:14.984Z,2.94
2023-01-13T06:32:44.173Z,2.87
2023-01-13T06:35:13.541Z,2.89
2023-01-13T06:37:42.061Z,2.92
2023-01-13T06:40:09.993Z,2.92
2023-01-13T06:42:55.887Z,2.90
2023-01-13T06:45:23.269Z,2.94
2023-01-13T06:47:49.903Z,2.94
2023-01-13T06:50:17.741Z,2.92
2023-01-13T06:52:44.289Z,2.94
2023-01-13T06:55:10.780Z,2.97
2023-01-13T06:57:46.988Z,3.01
2023-01-13T07:00:13.715Z,3.03
2023-01-13T07:02:40.235Z,3.06
2023-01-13T07:05:06.936Z,3.12
2023-01-13T07:07:33.724Z,3.13
2023-01-13T07:10:00.595Z,3.14
2023-01-13T07:12:27.063Z,3.14
2023-01-13T07:15:11.931Z,3.15
2023-01-13T07:17:38.383Z,3.17
2023-01-13T07:20:05.173Z,3.24
2023-01-13T07:22:31.662Z,3.27
2023-01-13T07:24:58.146Z,3.31
2023-01-13T07:27:24.619Z,3.33
2023-01-13T07:29:51.057Z,3.34
2023-01-13T07:32:17.545Z,3.34
2023-01-13T07:34:44.043Z,3.38
2023-01-13T07:37:10.552Z,3.41
2023-01-13T07:39:36.987Z,3.36
2023-01-13T07:42:22.123Z,3.40
2023-01-13T07:44:48.568Z,3.47
2023-01-13T07:47:15.009Z,3.47
2023-01-13T07:49:41.455Z,3.49
2023-01-13T07:52:07.940Z,3.52
2023-01-13T07:54:40.583Z,3.56
2023-01-13T07:57:07.959Z,3.62
2023-01-13T07:59:34.398Z,3.66
2023-01-13T08:02:01.033Z,3.69
2023-01-13T08:04:27.622Z,3.72
2023-01-13T08:06:54.060Z,3.70
2023-01-13T08:09:20.542Z,3.71
2023-01-13T08:12:06.952Z,3.75
2023-01-13T08:14:33.569Z,3.73
2023-01-13T08:17:00.076Z,3.73
2023-01-13T08:19:26.511Z,3.76
2023-01-13T08:21:52.941Z,3.79
2023-01-13T08:24:19.381Z,3.84
2023-01-13T08:26:45.864Z,3.88
2023-01-13T08:29:14.766Z,3.94
2023-01-13T08:31:41.509Z,3.99
2023-01-13T08:34:07.984Z,4.03
2023-01-13T08:36:34.423Z,4.06
2023-01-13T08:39:00.958Z,4.08
2023-01-13T08:41:46.080Z,4.07
2023-01-13T08:44:12.527Z,4.09
2023-01-13T08:46:38.980Z,4.10
2023-01-13T08:49:05.840Z,4.07
2023-01-13T08:51:32.297Z,4.09
2023-01-13T08:53:58.968Z,4.12
2023-01-13T08:56:25.449Z,4.08
2023-01-13T08:58:51.920Z,4.12
2023-01-13T09:01:21.277Z,4.07
2023-01-13T09:03:47.853Z,4.10
2023-01-13T09:06:14.607Z,4.13
2023-01-13T09:08:41.406Z,4.14
2023-01-13T09:11:28.352Z,4.12
2023-01-13T09:13:54.794Z,4.13
2023-01-13T09:16:21.267Z,4.19
2023-01-13T09:18:47.773Z,4.22
2023-01-13T09:21:14.198Z,4.24
2023-01-13T09:23:40.626Z,4.23
2023-01-13T09:26:08.475Z,4.21
2023-01-13T09:28:35.001Z,4.24
2023-01-13T09:31:01.870Z,4.21
2023-01-13T09:33:47.042Z,4.18
2023-01-13T09:36:13.469Z,4.17
2023-01-13T09:38:39.907Z,4.21
2023-01-13T09:41:26.347Z,4.30
2023-01-13T09:43:56.519Z,4.36
2023-01-13T09:46:43.698Z,4.36
2023-01-13T09:49:20.320Z,4.41
2023-01-13T09:51:53.109Z,4.44
2023-01-13T09:54:32.341Z,4.48
2023-01-13T09:56:59.405Z,4.53
2023-01-13T09:59:29.446Z,4.51
2023-01-13T10:02:05.015Z,4.53
2023-01-13T10:04:31.425Z,4.53
2023-01-13T10:07:01.730Z,4.58
2023-01-13T10:09:33.059Z,4.65
2023-01-13T10:12:18.584Z,4.68
2023-01-13T10:14:57.059Z,4.71
2023-01-13T10:17:46.157Z,4.71
2023-01-13T10:20:21.648Z,4.67
2023-01-13T10:22:53.902Z,4.67
2023-01-13T10:25:29.631Z,4.66
2023-01-13T10:27:56.881Z,4.71
2023-01-13T10:30:31.058Z,4.77
2023-01-13T10:33:01.871Z,4.83
2023-01-13T10:35:47.082Z,4.89
2023-01-13T10:38:18.516Z,4.94
2023-01-13T10:40:49.292Z,4.95
2023-01-13T10:43:15.714Z,4.97
2023-01-13T10:45:51.039Z,4.96
2023-01-13T10:48:17.520Z,4.99
2023-01-13T10:50:48.247Z,5.05
2023-01-13T10:53:24.612Z,5.11
2023-01-13T10:56:01.937Z,5.13
2023-01-13T10:58:29.070Z,5.17
2023-01-13T11:01:03.334Z,5.18
2023-01-13T11:03:37.847Z,5.17
2023-01-13T11:06:04.389Z,5.23
2023-01-13T11:08:41.215Z,5.25
2023-01-13T11:11:25.196Z,5.19
2023-01-13T11:14:12.345Z,5.18
2023-01-13T11:16:47.383Z,5.23
2023-01-13T11:19:21.633Z,5.22
2023-01-13T11:21:49.606Z,5.27
2023-01-13T11:24:23.440Z,5.31
2023-01-13T11:26:59.045Z,5.27
2023-01-13T11:29:44.053Z,5.30
2023-01-13T11:32:17.542Z,5.35
2023-01-13T11:34:45.674Z,5.39
2023-01-13T11:37:20.203Z,5.37
2023-01-13T11:39:55.404Z,5.41
2023-01-13T11:42:43.467Z,5.38
2023-01-13T11:45:16.993Z,5.42
2023-01-13T11:47:45.521Z,5.49
2023-01-13T11:50:35.246Z,5.53
2023-01-13T11:53:10.117Z,5.59
2023-01-13T11:55:54.599Z,5.59
2023-01-13T11:58:50.168Z,5.62
2023-01-13T12:01:26.807Z,5.62
2023-01-13T12:04:05.187Z,5.58
2023-01-13T12:06:41.403Z,5.60
2023-01-13T12:09:19.220Z,5.64
2023-01-13T12:12:07.573Z,5.66
2023-01-13T12:14:36.744Z,5.71
2023-01-13T12:17:06.384Z,5.72
2023-01-13T12:19:32.831Z,5.71
2023-01-13T12:21:59.260Z,5.67
2023-01-13T12:24:41.084Z,5.60
2023-01-13T12:27:13.721Z,5.61
2023-01-13T12:29:40.170Z,5.58
2023-01-13T12:32:14.865Z,5.54
2023-01-13T12:35:00.038Z,5.56
2023-01-13T12:37:32.737Z,5.54
2023-01-13T12:40:15.751Z,5.59
2023-01-13T12:43:00.860Z,5.52
2023-01-13T12:45:31.267Z,5.54
2023-01-13T12:47:58.190Z,5.61
2023-01-13T12:50:27.354Z,5.61
2023-01-13T12:52:55.004Z,5.64
2023-01-13T12:55:22.848Z,5.66
2023-01-13T12:58:02.620Z,5.58
2023-01-13T13:00:55.445Z,5.59
2023-01-13T13:03:28.355Z,5.55
2023-01-13T13:05:57.932Z,5.43
2023-01-13T13:08:43.216Z,5.49
2023-01-13T13:11:32.693Z,5.52
2023-01-13T13:14:00.016Z,5.49
2023-01-13T13:16:28.758Z,5.50
2023-01-13T13:19:13.941Z,5.46
2023-01-13T13:21:59.179Z,5.44
2023-01-13T13:24:26.108Z,5.48
2023-01-13T13:26:52.616Z,5.46
2023-01-13T13:29:22.031Z,5.32
2023-01-13T13:31:57.557Z,5.25
2023-01-13T13:34:50.362Z,5.22
2023-01-13T13:37:55.616Z,5.17
2023-01-13T13:40:41.590Z,5.22
2023-01-13T13:43:29.935Z,5.30
2023-01-13T13:46:14.973Z,5.36
2023-01-13T13:48:50.227Z,5.35
2023-01-13T13:51:32.337Z,5.26
2023-01-13T13:53:59.440Z,5.29
2023-01-13T13:56:30.409Z,5.27
2023-01-13T13:58:57.047Z,5.25
2023-01-13T14:01:23.689Z,5.27
2023-01-13T14:04:02.751Z,5.17
2023-01-13T14:06:29.991Z,5.16
2023-01-13T14:08:56.372Z,5.17
2023-01-13T14:11:26.222Z,5.17
2023-01-13T14:14:03.130Z,5.11
2023-01-13T14:16:29.816Z,5.04
2023-01-13T14:18:56.307Z,5.05
2023-01-13T14:21:25.319Z,4.97
2023-01-13T14:23:56.682Z,4.95
2023-01-13T14:26:30.885Z,5.00
2023-01-13T14:28:58.825Z,5.01
2023-01-13T14:31:25.526Z,5.00
2023-01-13T14:33:53.604Z,4.98
2023-01-13T14:36:20.075Z,4.95
2023-01-13T14:38:47.931Z,4.97
2023-01-13T14:41:22.891Z,5.01
2023-01-13T14:43:50.895Z,4.96
2023-01-13T14:46:17.771Z,4.94
2023-01-13T14:48:47.650Z,4.84
2023-01-13T14:51:20.995Z,4.77
2023-01-13T14:53:47.740Z,4.79
2023-01-13T14:56:32.759Z,4.84
2023-01-13T14:59:02.226Z,4.90
2023-01-13T15:01:39.556Z,4.88
2023-01-13T15:04:15.873Z,4.78
2023-01-13T15:06:45.912Z,4.73
2023-01-13T15:09:13.111Z,4.79
2023-01-13T15:11:40.663Z,4.76
2023-01-13T15:14:10.184Z,4.72
2023-01-13T15:16:37.173Z,4.69
2023-01-13T15:19:04.354Z,4.68
2023-01-13T15:21:30.808Z,4.70
2023-01-13T15:23:57.238Z,4.73
2023-01-13T15:26:25.661Z,4.64
2023-01-13T15:28:53.174Z,4.58
2023-01-13T15:31:20.081Z,4.58
2023-01-13T15:33:46.804Z,4.56
2023-01-13T15:36:24.861Z,4.52
2023-01-13T15:38:51.367Z,4.55
2023-01-13T15:41:37.906Z,4.47
2023-01-13T15:44:22.961Z,4.42
2023-01-13T15:46:49.743Z,4.33
2023-01-13T15:49:19.229Z,4.26
2023-01-13T15:51:49.650Z,4.26
2023-01-13T15:54:16.171Z,4.30
2023-01-13T15:56:42.641Z,4.36
2023-01-13T15:59:19.403Z,4.44
2023-01-13T16:01:46.063Z,4.47
2023-01-13T16:04:12.625Z,4.42
2023-01-13T16:06:39.120Z,4.40
2023-01-13T16:09:07.851Z,4.45
2023-01-13T16:11:34.325Z,4.48
2023-01-13T16:14:00.766Z,4.52
2023-01-13T16:16:28.177Z,4.55
2023-01-13T16:18:54.700Z,4.49
2023-01-13T16:21:21.317Z,4.52
2023-01-13T16:23:48.785Z,4.52
2023-01-13T16:26:23.137Z,4.53
2023-01-13T16:28:50.694Z,4.55
2023-01-13T16:31:23.262Z,4.54
2023-01-13T16:33:49.792Z,4.51
2023-01-13T16:36:17.329Z,4.54
2023-01-13T16:38:44.084Z,4.59
2023-01-13T16:41:10.630Z,4.59
2023-01-13T16:43:37.654Z,4.59
2023-01-13T16:46:24.436Z,4.57
2023-01-13T16:48:53.146Z,4.59
2023-01-13T16:51:20.610Z,4.57
2023-01-13T16:54:06.122Z,4.56
2023-01-13T16:56:36.321Z,4.55
2023-01-13T16:59:10.901Z,4.59
2023-01-13T17:01:39.471Z,4.55
2023-01-13T17:04:06.293Z,4.50
2023-01-13T17:06:44.640Z,4.56
2023-01-13T17:09:18.868Z,4.62
2023-01-13T17:11:45.354Z,4.67
2023-01-13T17:14:18.498Z,4.68
2023-01-13T17:16:46.351Z,4.66
2023-01-13T17:19:13.445Z,4.65
2023-01-13T17:21:39.916Z,4.64
2023-01-13T17:24:07.936Z,4.62
2023-01-13T17:26:37.170Z,4.61
2023-01-13T17:29:08.723Z,4.61
2023-01-13T17:31:35.946Z,4.64
2023-01-13T17:34:03.058Z,4.67
2023-01-13T17:36:29.591Z,4.69
2023-01-13T17:38:56.837Z,4.63
2023-01-13T17:41:23.857Z,4.58
2023-01-13T17:43:50.416Z,4.57
2023-01-13T17:46:19.176Z,4.56
2023-01-13T17:48:46.201Z,4.58
2023-01-13T17:51:13.353Z,4.55
2023-01-13T17:53:43.019Z,4.58
2023-01-13T17:56:10.357Z,4.62
2023-01-13T17:58:37.432Z,4.65
2023-01-13T18:01:08.136Z,4.62
2023-01-13T18:03:34.710Z,4.48
2023-01-13T18:06:05.227Z,4.39
2023-01-13T18:08:31.800Z,4.30
2023-01-13T18:11:01.396Z,4.41
2023-01-13T18:13:28.279Z,4.42
2023-01-13T18:16:02.760Z,4.43
2023-01-13T18:18:29.383Z,4.48
2023-01-13T18:21:14.571Z,4.52
2023-01-13T18:23:59.668Z,4.50
2023-01-13T18:26:44.595Z,4.44
2023-01-13T18:29:11.162Z,4.46
2023-01-13T18:31:37.592Z,4.49
2023-01-13T18:34:04.056Z,4.53
2023-01-13T18:36:30.561Z,4.51
2023-01-13T18:38:58.202Z,4.48
2023-01-13T18:41:44.010Z,4.44
2023-01-13T18:44:10.452Z,4.47
2023-01-13T18:46:37.030Z,4.43
2023-01-13T18:49:03.588Z,4.45
2023-01-13T18:51:30.052Z,4.44
2023-01-13T18:53:56.491Z,4.45
2023-01-13T18:56:23.194Z,4.44
2023-01-13T18:58:53.422Z,4.37
2023-01-13T19:01:25.599Z,4.33
2023-01-13T19:03:59.807Z,4.26
2023-01-13T19:06:27.718Z,4.29
2023-01-13T19:08:55.668Z,4.31
2023-01-13T19:11:23.115Z,4.30
2023-01-13T19:13:49.971Z,4.24
2023-01-13T19:16:17.018Z,4.26
2023-01-13T19:18:43.882Z,4.19
2023-01-13T19:21:10.660Z,4.20
2023-01-13T19:23:37.356Z,4.23
2023-01-13T19:26:04.979Z,4.26
2023-01-13T19:28:31.759Z,4.30
2023-01-13T19:31:02.451Z,4.33
2023-01-13T19:33:30.238Z,4.30
2023-01-13T19:35:56.831Z,4.31
2023-01-13T19:38:24.025Z,4.34
2023-01-13T19:41:01.011Z,4.34
2023-01-13T19:43:46.091Z,4.33
2023-01-13T19:46:13.026Z,4.35
2023-01-13T19:48:39.888Z,4.32
2023-01-13T19:51:06.770Z,4.33
2023-01-13T19:53:33.240Z,4.34
2023-01-13T19:55:59.767Z,4.36
2023-01-13T19:58:26.723Z,4.37
2023-01-13T20:00:54.184Z,4.34
2023-01-13T20:03:24.221Z,4.35
2023-01-13T20:05:51.367Z,4.34
2023-01-13T20:08:18.925Z,4.32
2023-01-13T20:10:46.034Z,4.31
2023-01-13T20:13:12.680Z,4.33
2023-01-13T20:15:39.797Z,4.34
2023-01-13T20:18:06.392Z,4.23
2023-01-13T20:20:32.947Z,4.21
2023-01-13T20:22:59.632Z,4.18
2023-01-13T20:25:28.576Z,4.19
2023-01-13T20:27:55.858Z,4.21
2023-01-13T20:30:23.080Z,4.21
2023-01-13T20:32:49.568Z,4.25
2023-01-13T20:35:17.144Z,4.30
2023-01-13T20:37:43.753Z,4.33
2023-01-13T20:40:16.028Z,4.33
2023-01-13T20:42:45.074Z,4.32
2023-01-13T20:45:17.794Z,4.34
2023-01-13T20:47:44.953Z,4.33
2023-01-13T20:50:11.858Z,4.31
2023-01-13T20:52:38.447Z,4.27
2023-01-13T20:55:06.293Z,4.23
2023-01-13T20:57:32.952Z,4.28
2023-01-13T20:59:59.432Z,4.31
2023-01-13T21:02:26.168Z,4.35
2023-01-13T21:04:52.678Z,4.36
2023-01-13T21:07:19.243Z,4.37
2023-01-13T21:09:45.691Z,4.38
2023-01-13T21:12:33.982Z,4.35
2023-01-13T21:15:20.009Z,4.37
2023-01-13T21:18:07.573Z,4.39
2023-01-13T21:20:34.996Z,4.30
2023-01-13T21:23:02.285Z,4.24
2023-01-13T21:25:29.093Z,4.21
2023-01-13T21:27:56.335Z,4.22
2023-01-13T21:30:22.780Z,4.22
2023-01-13T21:32:49.286Z,4.23
2023-01-13T21:35:15.843Z,4.28
2023-01-13T21:37:43.177Z,4.29
2023-01-13T21:40:12.035Z,4.29
2023-01-13T21:43:00.313Z,4.31
2023-01-13T21:45:45.273Z,4.34
2023-01-13T21:48:11.797Z,4.31
2023-01-13T21:50:38.388Z,4.24
2023-01-13T21:53:05.284Z,4.19
2023-01-13T21:55:32.933Z,4.17
2023-01-13T21:58:09.655Z,4.21
2023-01-13T22:00:36.342Z,4.17
2023-01-13T22:03:04.225Z,4.16
2023-01-13T22:05:31.035Z,4.22
2023-01-13T22:07:57.759Z,4.27
2023-01-13T22:10:25.613Z,4.31
2023-01-13T22:12:56.746Z,4.34
2023-01-13T22:15:26.903Z,4.36
2023-01-13T22:17:54.194Z,4.35
2023-01-13T22:20:21.428Z,4.38
2023-01-13T22:22:48.281Z,4.40
2023-01-13T22:25:15.673Z,4.41
2023-01-13T22:27:44.399Z,4.42
2023-01-13T22:30:18.543Z,4.44
2023-01-13T22:32:45.763Z,4.44
2023-01-13T22:35:12.908Z,4.43
2023-01-13T22:37:39.533Z,4.43
2023-01-13T22:40:07.071Z,4.43
2023-01-13T22:42:36.458Z,4.43
2023-01-13T22:45:03.792Z,4.44
2023-01-13T22:47:31.336Z,4.41
2023-01-13T22:49:57.887Z,4.43
2023-01-13T22:52:24.361Z,4.44
2023-01-13T22:54:50.783Z,4.42
2023-01-13T22:57:17.274Z,4.42
2023-01-13T22:59:43.726Z,4.42
2023-01-13T23:02:10.443Z,4.39
2023-01-13T23:04:36.990Z,4.35
2023-01-13T23:07:03.570Z,4.32
2023-01-13T23:09:30.095Z,4.34
2023-01-13T23:11:59.465Z,4.36
2023-01-13T23:14:25.941Z,4.38
2023-01-13T23:16:52.748Z,4.36
2023-01-13T23:19:19.310Z,4.37
2023-01-13T23:21:45.796Z,4.37
2023-01-13T23:24:12.260Z,4.37
2023-01-13T23:26:38.732Z,4.36
2023-01-13T23:29:06.429Z,4.37
2023-01-13T23:31:32.915Z,4.36
2023-01-13T23:33:59.709Z,4.37
2023-01-13T23:36:27.013Z,4.35
2023-01-13T23:38:53.576Z,4.35
2023-01-13T23:41:21.910Z,4.35
2023-01-13T23:43:55.710Z,4.36
2023-01-13T23:46:22.474Z,4.38
2023-01-13T23:48:49.795Z,4.38
2023-01-13T23:51:16.316Z,4.40
2023-01-13T23:53:44.497Z,4.39
2023-01-13T23:56:13.692Z,4.37
2023-01-13T23:58:40.689Z,4.38
